createdAt,value
2023-01-18T00:00:40.468Z,22.92
2023-01-18T00:01:22.505Z,22.27
2023-01-18T00:02:04.436Z,26.02
2023-01-18T00:02:46.929Z,22.42
2023-01-18T00:03:28.900Z,23.20
2023-01-18T00:04:10.840Z,23.33
2023-01-18T00:04:52.575Z,21.65
2023-01-18T00:05:34.947Z,22.25
2023-01-18T00:06:17.884Z,22.33
2023-01-18T00:06:59.789Z,24.40
2023-01-18T00:07:41.580Z,20.90
2023-01-18T00:08:23.396Z,21.70
2023-01-18T00:09:05.218Z,21.63
2023-01-18T00:09:46.989Z,23.40
2023-01-18T00:10:28.772Z,22.58
2023-01-18T00:11:13.199Z,24.45
2023-01-18T00:11:54.912Z,18.88
2023-01-18T00:12:36.600Z,20.50
2023-01-18T00:13:18.383Z,21.48
2023-01-18T00:14:02.583Z,20.33
2023-01-18T00:14:44.441Z,20.70
2023-01-18T00:15:28.701Z,23.92
2023-01-18T00:16:16.185Z,20.08
2023-01-18T00:16:58.040Z,19.58
2023-01-18T00:17:47.765Z,19.45
2023-01-18T00:18:29.635Z,21.85
2023-01-18T00:19:13.231Z,21.98
2023-01-18T00:19:54.954Z,23.25
2023-01-18T00:20:36.657Z,22.48
2023-01-18T00:21:18.455Z,18.20
2023-01-18T00:22:00.206Z,18.17
2023-01-18T00:22:42.606Z,21.30
2023-01-18T00:23:26.524Z,26.17
2023-01-18T00:24:11.635Z,24.17
2023-01-18T00:24:53.387Z,24.23
2023-01-18T00:25:35.073Z,20.20
2023-01-18T00:26:17.158Z,19.13
2023-01-18T00:26:59.053Z,17.13
2023-01-18T00:27:46.133Z,19.80
2023-01-18T00:28:28.487Z,18.13
2023-01-18T00:29:10.446Z,19.95
2023-01-18T00:29:52.440Z,17.83
2023-01-18T00:30:34.198Z,18.73
2023-01-18T00:31:20.746Z,22.70
2023-01-18T00:32:02.560Z,23.15
2023-01-18T00:32:48.097Z,18.17
2023-01-18T00:33:29.905Z,20.33
2023-01-18T00:34:11.742Z,18.35
2023-01-18T00:34:53.441Z,17.58
2023-01-18T00:35:35.151Z,20.88
2023-01-18T00:36:17.819Z,22.85
2023-01-18T00:36:59.615Z,23.30
2023-01-18T00:37:41.893Z,18.90
2023-01-18T00:38:23.820Z,20.55
2023-01-18T00:39:05.693Z,22.75
2023-01-18T00:39:47.639Z,18.23
2023-01-18T00:40:30.224Z,21.38
2023-01-18T00:41:11.962Z,20.00
2023-01-18T00:42:12.188Z,19.35
2023-01-18T00:43:12.763Z,17.88
2023-01-18T00:43:54.653Z,19.63
2023-01-18T00:44:36.581Z,19.85
2023-01-18T00:45:18.671Z,20.73
2023-01-18T00:46:00.437Z,15.65
2023-01-18T00:46:42.188Z,17.95
2023-01-18T00:47:23.911Z,18.52
2023-01-18T00:48:05.871Z,18.50
2023-01-18T00:48:50.844Z,19.35
2023-01-18T00:49:32.584Z,19.98
2023-01-18T00:50:14.598Z,20.27
2023-01-18T00:50:56.515Z,18.77
2023-01-18T00:51:38.229Z,15.50
2023-01-18T00:52:20.127Z,16.15
2023-01-18T00:53:01.953Z,16.33
2023-01-18T00:53:44.274Z,18.67
2023-01-18T00:54:26.117Z,16.45
2023-01-18T00:55:08.799Z,15.98
2023-01-18T00:55:52.927Z,17.88
2023-01-18T00:56:34.677Z,17.00
2023-01-18T00:57:16.396Z,18.45
2023-01-18T00:57:58.132Z,18.17
2023-01-18T00:58:40.402Z,15.98
2023-01-18T00:59:22.220Z,19.40
2023-01-18T01:00:04.782Z,21.63
2023-01-18T01:00:51.222Z,17.40
2023-01-18T01:01:33.139Z,17.40
2023-01-18T01:02:15.420Z,19.75
2023-01-18T01:02:57.629Z,19.20
2023-01-18T01:04:00.902Z,18.33
2023-01-18T01:05:01.554Z,16.42
2023-01-18T01:06:01.995Z,18.58
2023-01-18T01:06:44.282Z,18.08
2023-01-18T01:07:26.245Z,19.05
2023-01-18T01:08:08.741Z,18.73
2023-01-18T01:08:53.270Z,18.42
2023-01-18T01:09:35.141Z,22.67
2023-01-18T01:10:16.945Z,18.63
2023-01-18T01:11:15.069Z,14.55
2023-01-18T01:12:17.331Z,14.20
2023-01-18T01:13:19.644Z,17.65
2023-01-18T01:14:20.091Z,15.07
2023-01-18T01:15:20.346Z,14.65
2023-01-18T01:16:25.847Z,19.20
2023-01-18T01:17:25.878Z,15.85
2023-01-18T01:18:27.031Z,15.98
2023-01-18T01:19:27.314Z,18.15
2023-01-18T01:20:28.911Z,16.13
2023-01-18T01:21:29.289Z,15.85
2023-01-18T01:22:29.430Z,18.13
2023-01-18T01:23:34.889Z,14.98
2023-01-18T01:24:37.727Z,16.50
2023-01-18T01:25:40.061Z,17.20
2023-01-18T01:26:21.867Z,16.00
2023-01-18T01:27:03.907Z,17.83
2023-01-18T01:27:46.303Z,19.38
2023-01-18T01:28:28.017Z,16.65
2023-01-18T01:29:09.786Z,17.08
2023-01-18T01:29:52.582Z,16.30
2023-01-18T01:30:34.465Z,15.52
2023-01-18T01:31:17.525Z,17.35
2023-01-18T01:31:59.431Z,16.40
2023-01-18T01:32:41.145Z,17.15
2023-01-18T01:33:22.943Z,18.00
2023-01-18T01:34:04.885Z,16.10
2023-01-18T01:34:46.637Z,16.48
2023-01-18T01:35:28.399Z,16.42
2023-01-18T01:36:19.122Z,21.90
2023-01-18T01:37:00.880Z,19.38
2023-01-18T01:37:42.601Z,17.70
2023-01-18T01:38:24.839Z,13.57
2023-01-18T01:39:11.042Z,13.60
2023-01-18T01:39:54.844Z,14.18
2023-01-18T01:40:36.575Z,13.80
2023-01-18T01:41:25.388Z,14.90
2023-01-18T01:42:11.311Z,14.18
2023-01-18T01:42:53.081Z,13.98
2023-01-18T01:43:46.101Z,14.32
2023-01-18T01:44:29.885Z,14.80
2023-01-18T01:45:11.707Z,16.55
2023-01-18T01:45:53.544Z,14.88
2023-01-18T01:46:38.578Z,13.15
2023-01-18T01:47:31.524Z,16.17
2023-01-18T01:48:13.330Z,15.43
2023-01-18T01:49:19.921Z,16.48
2023-01-18T01:50:14.902Z,15.43
2023-01-18T01:50:56.942Z,14.32
2023-01-18T01:52:00.924Z,17.15
2023-01-18T01:52:48.301Z,18.45
2023-01-18T01:53:30.058Z,15.60
2023-01-18T01:54:22.960Z,16.05
2023-01-18T01:55:11.445Z,14.30
2023-01-18T01:55:53.268Z,15.55
2023-01-18T01:56:35.016Z,15.07
2023-01-18T01:57:24.710Z,16.63
2023-01-18T01:58:21.011Z,18.88
2023-01-18T01:59:04.460Z,14.98
2023-01-18T02:00:00.367Z,14.98
2023-01-18T02:00:43.082Z,14.35
2023-01-18T02:01:26.069Z,15.85
2023-01-18T02:02:08.144Z,16.83
2023-01-18T02:03:20.265Z,13.50
2023-01-18T02:04:03.029Z,15.80
2023-01-18T02:04:46.529Z,14.70
2023-01-18T02:05:31.005Z,16.30
2023-01-18T02:06:31.264Z,19.05
2023-01-18T02:07:13.292Z,17.25
2023-01-18T02:07:58.355Z,17.55
2023-01-18T02:08:40.414Z,15.52
2023-01-18T02:09:23.362Z,15.93
2023-01-18T02:10:06.267Z,15.35
2023-01-18T02:10:52.077Z,15.35
2023-01-18T02:11:34.155Z,13.90
2023-01-18T02:12:16.271Z,14.15
2023-01-18T02:12:59.642Z,13.90
2023-01-18T02:13:41.809Z,17.55
2023-01-18T02:14:27.542Z,14.90
2023-01-18T02:15:09.907Z,13.68
2023-01-18T02:16:30.368Z,15.80
2023-01-18T02:17:39.985Z,15.88
2023-01-18T02:18:35.713Z,14.35
2023-01-18T02:19:17.582Z,14.38
2023-01-18T02:20:40.849Z,15.77
2023-01-18T02:21:40.465Z,19.67
2023-01-18T02:22:34.082Z,17.08
2023-01-18T02:23:33.200Z,16.83
2023-01-18T02:24:45.458Z,15.80
2023-01-18T02:25:50.624Z,16.95
2023-01-18T02:26:48.536Z,17.88
2023-01-18T02:27:46.317Z,19.13
2023-01-18T02:28:33.686Z,15.10
2023-01-18T02:29:19.523Z,13.77
2023-01-18T02:30:06.376Z,15.27
2023-01-18T02:30:54.191Z,14.30
2023-01-18T02:31:52.305Z,16.83
2023-01-18T02:33:05.326Z,15.38
2023-01-18T02:34:13.423Z,17.95
2023-01-18T02:35:41.538Z,16.23
2023-01-18T02:36:39.386Z,15.63
2023-01-18T02:37:33.217Z,13.20
2023-01-18T02:38:31.114Z,16.02
2023-01-18T02:39:38.343Z,14.23
2023-01-18T02:41:14.351Z,18.02
2023-01-18T02:42:24.585Z,14.80
2023-01-18T02:43:28.412Z,14.65
2023-01-18T02:44:28.851Z,15.75
2023-01-18T02:45:41.012Z,14.13
2023-01-18T02:46:38.752Z,15.07
2023-01-18T02:47:21.664Z,17.58
2023-01-18T02:48:04.288Z,16.35
2023-01-18T02:48:47.150Z,13.95
2023-01-18T02:49:32.181Z,15.60
2023-01-18T02:50:26.614Z,19.67
2023-01-18T02:51:09.260Z,14.68
2023-01-18T02:52:04.326Z,13.95
2023-01-18T02:52:53.561Z,16.17
2023-01-18T02:53:40.193Z,14.68
2023-01-18T02:54:24.916Z,14.40
2023-01-18T02:55:27.092Z,15.55
2023-01-18T02:56:24.719Z,15.23
2023-01-18T02:57:13.395Z,15.45
2023-01-18T02:58:01.824Z,14.80
2023-01-18T02:59:10.170Z,12.65
2023-01-18T02:59:54.828Z,13.65
2023-01-18T03:00:40.222Z,13.40
2023-01-18T03:01:37.042Z,15.35
2023-01-18T03:02:22.215Z,16.88
2023-01-18T03:03:07.220Z,14.43
2023-01-18T03:03:51.683Z,14.75
2023-01-18T03:04:56.648Z,14.05
2023-01-18T03:05:42.223Z,17.35
2023-01-18T03:06:27.606Z,14.25
2023-01-18T03:07:17.637Z,14.20
2023-01-18T03:08:14.349Z,12.88
2023-01-18T03:08:58.625Z,15.38
2023-01-18T03:09:42.329Z,14.05
2023-01-18T03:10:28.562Z,15.57
2023-01-18T03:11:19.720Z,14.50
2023-01-18T03:12:15.355Z,14.82
2023-01-18T03:13:15.166Z,15.30
2023-01-18T03:13:59.124Z,13.48
2023-01-18T03:15:01.627Z,14.23
2023-01-18T03:15:55.442Z,16.33
2023-01-18T03:16:57.902Z,13.27
2023-01-18T03:17:51.874Z,16.75
2023-01-18T03:18:39.285Z,16.45
2023-01-18T03:19:41.354Z,16.48
2023-01-18T03:20:27.614Z,13.43
2023-01-18T03:21:09.436Z,14.75
2023-01-18T03:21:55.365Z,16.55
2023-01-18T03:23:28.056Z,14.38
2023-01-18T03:24:13.559Z,15.60
2023-01-18T03:24:55.368Z,13.70
2023-01-18T03:25:41.381Z,11.77
2023-01-18T03:26:24.775Z,14.07
2023-01-18T03:27:26.025Z,13.60
2023-01-18T03:28:41.358Z,12.88
2023-01-18T03:29:42.398Z,14.30
2023-01-18T03:30:45.454Z,16.85
2023-01-18T03:31:52.989Z,13.10
2023-01-18T03:32:53.783Z,12.90
2023-01-18T03:33:48.841Z,18.65
2023-01-18T03:34:55.485Z,12.18
2023-01-18T03:35:38.609Z,18.75
2023-01-18T03:36:33.042Z,18.60
2023-01-18T03:37:20.772Z,14.07
2023-01-18T03:38:02.530Z,11.35
2023-01-18T03:38:47.374Z,15.48
2023-01-18T03:39:36.707Z,12.90
2023-01-18T03:40:23.619Z,14.95
2023-01-18T03:41:07.552Z,14.15
2023-01-18T03:41:53.586Z,13.90
2023-01-18T03:43:11.427Z,15.25
2023-01-18T03:43:56.643Z,12.50
2023-01-18T03:44:52.758Z,15.13
2023-01-18T03:45:39.527Z,12.93
2023-01-18T03:46:23.651Z,14.25
2023-01-18T03:47:06.743Z,14.90
2023-01-18T03:47:50.348Z,11.60
2023-01-18T03:48:35.267Z,15.05
2023-01-18T03:49:18.140Z,12.30
2023-01-18T03:50:00.035Z,13.82
2023-01-18T03:50:52.813Z,13.63
2023-01-18T03:51:54.479Z,13.60
2023-01-18T03:52:45.108Z,14.82
2023-01-18T03:53:40.531Z,12.70
2023-01-18T03:54:36.356Z,13.30
2023-01-18T03:55:25.387Z,14.85
2023-01-18T03:56:34.629Z,14.77
2023-01-18T03:57:32.044Z,14.48
2023-01-18T03:58:19.541Z,14.00
2023-01-18T03:59:04.451Z,14.60
2023-01-18T03:59:47.544Z,13.73
2023-01-18T04:00:33.499Z,12.10
2023-01-18T04:01:15.905Z,13.00
2023-01-18T04:01:57.983Z,13.50
2023-01-18T04:02:40.047Z,14.60
2023-01-18T04:03:22.069Z,13.18
2023-01-18T04:04:03.886Z,13.57
2023-01-18T04:04:45.659Z,14.73
2023-01-18T04:05:27.494Z,16.42
2023-01-18T04:06:09.680Z,14.27
2023-01-18T04:06:51.779Z,14.90
2023-01-18T04:07:33.594Z,14.05
2023-01-18T04:08:18.512Z,16.63
2023-01-18T04:09:00.464Z,15.68
2023-01-18T04:09:42.206Z,13.68
2023-01-18T04:10:23.942Z,14.40
2023-01-18T04:11:06.091Z,14.77
2023-01-18T04:11:47.819Z,16.52
2023-01-18T04:12:30.251Z,16.70
2023-01-18T04:13:11.972Z,15.02
2023-01-18T04:13:54.604Z,16.38
2023-01-18T04:14:36.478Z,14.65
2023-01-18T04:15:18.222Z,13.18
2023-01-18T04:16:00.117Z,11.18
2023-01-18T04:16:42.037Z,13.70
2023-01-18T04:17:23.938Z,13.82
2023-01-18T04:18:06.502Z,14.82
2023-01-18T04:18:48.661Z,14.77
2023-01-18T04:19:30.648Z,16.88
2023-01-18T04:20:12.437Z,14.40
2023-01-18T04:20:58.699Z,12.30
2023-01-18T04:21:40.578Z,11.13
2023-01-18T04:22:22.562Z,14.45
2023-01-18T04:23:06.878Z,15.00
2023-01-18T04:23:48.619Z,16.25
2023-01-18T04:24:30.565Z,12.85
2023-01-18T04:25:12.496Z,15.65
2023-01-18T04:25:54.239Z,15.43
2023-01-18T04:26:36.164Z,16.40
2023-01-18T04:27:18.139Z,14.05
2023-01-18T04:28:00.129Z,11.45
2023-01-18T04:28:42.219Z,15.10
2023-01-18T04:29:23.980Z,14.85
2023-01-18T04:30:06.391Z,15.70
2023-01-18T04:30:50.143Z,12.75
2023-01-18T04:31:32.052Z,15.13
2023-01-18T04:32:13.795Z,14.55
2023-01-18T04:32:55.664Z,11.70
2023-01-18T04:33:37.668Z,12.45
2023-01-18T04:34:22.155Z,14.38
2023-01-18T04:35:04.126Z,16.02
2023-01-18T04:35:46.532Z,13.32
2023-01-18T04:36:30.550Z,12.60
2023-01-18T04:37:12.609Z,14.02
2023-01-18T04:37:54.378Z,12.93
2023-01-18T04:38:36.154Z,14.18
2023-01-18T04:39:18.213Z,15.57
2023-01-18T04:40:00.677Z,15.60
2023-01-18T04:40:43.006Z,16.73
2023-01-18T04:41:24.783Z,17.10
2023-01-18T04:42:06.695Z,11.52
2023-01-18T04:42:54.804Z,13.32
2023-01-18T04:43:36.682Z,13.52
2023-01-18T04:44:18.713Z,12.98
2023-01-18T04:45:00.689Z,15.52
2023-01-18T04:45:44.815Z,14.95
2023-01-18T04:46:27.095Z,13.70
2023-01-18T04:47:08.852Z,13.32
2023-01-18T04:47:50.632Z,14.02
2023-01-18T04:48:33.455Z,14.63
2023-01-18T04:49:17.412Z,12.07
2023-01-18T04:49:59.315Z,12.63
2023-01-18T04:50:47.657Z,13.70
2023-01-18T04:51:31.334Z,13.05
2023-01-18T04:52:13.088Z,13.68
2023-01-18T04:52:54.854Z,16.17
2023-01-18T04:53:36.707Z,12.98
2023-01-18T04:54:19.219Z,16.23
2023-01-18T04:55:01.208Z,16.98
2023-01-18T04:55:43.252Z,14.50
2023-01-18T04:56:25.003Z,14.45
2023-01-18T04:57:06.789Z,14.40
2023-01-18T04:57:56.392Z,14.80
2023-01-18T04:58:38.216Z,14.88
2023-01-18T04:59:20.023Z,16.55
2023-01-18T05:00:02.263Z,14.52
2023-01-18T05:00:46.941Z,14.65
2023-01-18T05:01:32.187Z,12.32
2023-01-18T05:02:16.005Z,13.30
2023-01-18T05:02:58.160Z,10.40
2023-01-18T05:03:41.382Z,11.95
2023-01-18T05:04:23.101Z,13.90
2023-01-18T05:05:06.011Z,14.85
2023-01-18T05:05:47.756Z,14.05
2023-01-18T05:06:31.831Z,14.40
2023-01-18T05:07:13.829Z,13.55
2023-01-18T05:07:58.203Z,14.40
2023-01-18T05:08:43.090Z,17.13
2023-01-18T05:09:24.876Z,15.07
2023-01-18T05:10:06.932Z,13.43
2023-01-18T05:10:48.777Z,13.35
2023-01-18T05:11:30.511Z,15.05
2023-01-18T05:12:14.647Z,15.18
2023-01-18T05:12:56.817Z,15.52
2023-01-18T05:13:42.001Z,14.00
2023-01-18T05:14:23.917Z,13.02
2023-01-18T05:15:06.855Z,12.90
2023-01-18T05:15:48.650Z,16.23
2023-01-18T05:16:30.536Z,17.02
2023-01-18T05:17:12.355Z,12.85
2023-01-18T05:17:54.270Z,13.18
2023-01-18T05:18:36.317Z,14.30
2023-01-18T05:19:18.107Z,14.85
2023-01-18T05:20:03.150Z,15.07
2023-01-18T05:20:44.923Z,13.65
2023-01-18T05:21:26.883Z,14.13
2023-01-18T05:22:08.963Z,16.85
2023-01-18T05:22:53.008Z,19.35
2023-01-18T05:23:37.302Z,18.60
2023-01-18T05:24:19.196Z,18.45
2023-01-18T05:25:01.942Z,19.33
2023-01-18T05:25:43.950Z,20.20
2023-01-18T05:26:25.967Z,17.83
2023-01-18T05:27:09.912Z,18.35
2023-01-18T05:27:51.876Z,16.80
2023-01-18T05:28:33.660Z,15.10
2023-01-18T05:29:15.428Z,13.85
2023-01-18T05:29:59.972Z,19.45
2023-01-18T05:30:42.969Z,20.05
2023-01-18T05:31:25.529Z,14.60
2023-01-18T05:32:07.342Z,13.95
2023-01-18T05:32:49.306Z,17.48
2023-01-18T05:33:31.405Z,20.00
2023-01-18T05:34:13.159Z,18.15
2023-01-18T05:34:54.898Z,16.60
2023-01-18T05:35:37.050Z,17.33
2023-01-18T05:36:19.028Z,21.40
2023-01-18T05:37:01.097Z,16.42
2023-01-18T05:37:45.122Z,17.08
2023-01-18T05:38:26.939Z,14.65
2023-01-18T05:39:09.381Z,15.75
2023-01-18T05:39:51.355Z,16.02
2023-01-18T05:40:33.215Z,14.73
2023-01-18T05:41:15.011Z,14.15
2023-01-18T05:41:59.938Z,15.93
2023-01-18T05:42:41.918Z,15.13
2023-01-18T05:43:25.424Z,18.27
2023-01-18T05:44:07.294Z,20.40
2023-01-18T05:44:49.345Z,19.10
2023-01-18T05:45:31.631Z,17.83
2023-01-18T05:46:13.984Z,15.45
2023-01-18T05:46:56.078Z,16.00
2023-01-18T05:47:37.937Z,16.08
2023-01-18T05:48:20.205Z,17.60
2023-01-18T05:49:02.021Z,16.90
2023-01-18T05:49:43.815Z,18.05
2023-01-18T05:50:25.605Z,16.40
2023-01-18T05:51:09.758Z,18.58
2023-01-18T05:51:51.661Z,15.68
2023-01-18T05:52:34.056Z,15.25
2023-01-18T05:53:18.581Z,15.85
2023-01-18T05:54:00.342Z,17.42
2023-01-18T05:54:42.333Z,15.38
2023-01-18T05:55:25.063Z,13.95
2023-01-18T05:56:08.606Z,14.75
2023-01-18T05:56:50.466Z,16.55
2023-01-18T05:57:32.483Z,17.10
2023-01-18T05:58:14.313Z,16.52
2023-01-18T05:58:56.106Z,15.60
2023-01-18T05:59:37.859Z,15.77
2023-01-18T06:00:20.092Z,16.90
2023-01-18T06:01:02.078Z,19.40
2023-01-18T06:01:44.143Z,18.55
2023-01-18T06:02:26.028Z,16.48
2023-01-18T06:03:10.899Z,17.38
2023-01-18T06:03:52.746Z,20.08
2023-01-18T06:04:35.376Z,14.40
2023-01-18T06:05:17.273Z,15.43
2023-01-18T06:05:59.256Z,15.35
2023-01-18T06:06:41.156Z,16.67
2023-01-18T06:07:24.998Z,16.70
2023-01-18T06:08:06.964Z,14.90
2023-01-18T06:08:48.861Z,16.80
2023-01-18T06:09:30.591Z,16.65
2023-01-18T06:10:12.403Z,19.75
2023-01-18T06:10:55.309Z,16.35
2023-01-18T06:11:37.140Z,18.60
2023-01-18T06:12:19.051Z,15.57
2023-01-18T06:13:01.356Z,15.60
2023-01-18T06:13:43.210Z,18.05
2023-01-18T06:14:27.067Z,16.85
2023-01-18T06:15:12.412Z,16.00
2023-01-18T06:15:54.785Z,16.13
2023-01-18T06:16:36.782Z,15.98
2023-01-18T06:17:18.553Z,20.88
2023-01-18T06:18:00.487Z,18.65
2023-01-18T06:18:42.305Z,19.08
2023-01-18T06:19:24.157Z,19.52
2023-01-18T06:20:06.557Z,16.60
2023-01-18T06:20:48.423Z,15.93
2023-01-18T06:21:30.255Z,20.05
2023-01-18T06:22:12.073Z,19.65
2023-01-18T06:22:54.058Z,16.35
2023-01-18T06:23:36.133Z,17.30
2023-01-18T06:24:20.292Z,13.75
2023-01-18T06:25:02.181Z,15.25
2023-01-18T06:25:44.212Z,18.25
2023-01-18T06:26:26.277Z,19.45
2023-01-18T06:27:10.293Z,17.27
2023-01-18T06:27:52.120Z,15.95
2023-01-18T06:28:33.972Z,17.23
2023-01-18T06:29:15.742Z,17.33
2023-01-18T06:29:57.626Z,17.80
2023-01-18T06:30:39.678Z,16.95
2023-01-18T06:31:21.662Z,20.45
2023-01-18T06:32:03.607Z,18.30
2023-01-18T06:32:45.363Z,19.55
2023-01-18T06:33:27.135Z,15.32
2023-01-18T06:34:09.458Z,18.30
2023-01-18T06:34:51.231Z,16.65
2023-01-18T06:35:36.235Z,16.23
2023-01-18T06:36:20.293Z,18.50
2023-01-18T06:37:02.610Z,18.95
2023-01-18T06:37:47.457Z,15.45
2023-01-18T06:38:29.841Z,14.57
2023-01-18T06:39:12.006Z,18.60
2023-01-18T06:39:53.751Z,17.95
2023-01-18T06:40:35.664Z,14.60
2023-01-18T06:41:17.955Z,15.85
2023-01-18T06:42:00.215Z,17.63
2023-01-18T06:42:42.120Z,15.75
2023-01-18T06:43:24.542Z,16.35
2023-01-18T06:44:06.459Z,15.77
2023-01-18T06:44:48.811Z,18.88
2023-01-18T06:45:30.540Z,18.35
2023-01-18T06:46:12.298Z,15.35
2023-01-18T06:46:54.377Z,16.02
2023-01-18T06:47:36.398Z,18.17
2023-01-18T06:48:20.199Z,19.42
2023-01-18T06:49:02.109Z,16.35
2023-01-18T06:49:44.437Z,23.10
2023-01-18T06:50:26.303Z,20.33
2023-01-18T06:51:08.366Z,18.55
2023-01-18T06:51:52.438Z,19.25
2023-01-18T06:52:34.310Z,19.08
2023-01-18T06:53:18.424Z,17.70
2023-01-18T06:54:00.348Z,18.83
2023-01-18T06:54:42.834Z,19.23
2023-01-18T06:55:24.595Z,19.50
2023-01-18T06:56:10.322Z,17.83
2023-01-18T06:56:52.514Z,17.48
2023-01-18T06:57:34.741Z,18.73
2023-01-18T06:58:16.906Z,17.48
2023-01-18T06:59:02.260Z,16.33
2023-01-18T06:59:43.972Z,16.85
2023-01-18T07:00:25.780Z,20.30
2023-01-18T07:01:08.040Z,15.43
2023-01-18T07:01:49.924Z,14.80
2023-01-18T07:02:35.717Z,16.27
2023-01-18T07:03:17.975Z,16.58
2023-01-18T07:04:00.328Z,17.60
2023-01-18T07:04:44.169Z,17.58
2023-01-18T07:05:26.377Z,16.52
2023-01-18T07:06:08.550Z,18.80
2023-01-18T07:06:50.724Z,18.20
2023-01-18T07:07:35.287Z,19.73
2023-01-18T07:08:17.469Z,20.20
2023-01-18T07:09:01.509Z,22.30
2023-01-18T07:09:43.681Z,19.88
2023-01-18T07:10:25.788Z,18.80
2023-01-18T07:11:08.717Z,18.15
2023-01-18T07:11:50.883Z,16.35
2023-01-18T07:12:35.231Z,18.70
2023-01-18T07:13:17.366Z,19.00
2023-01-18T07:13:59.523Z,18.77
2023-01-18T07:14:41.754Z,19.75
2023-01-18T07:15:23.868Z,18.10
2023-01-18T07:16:08.730Z,17.10
2023-01-18T07:16:50.890Z,18.10
2023-01-18T07:17:33.051Z,20.33
2023-01-18T07:18:16.894Z,18.73
2023-01-18T07:19:01.773Z,17.83
2023-01-18T07:19:44.853Z,18.63
2023-01-18T07:20:26.964Z,18.30
2023-01-18T07:21:10.146Z,17.55
2023-01-18T07:21:53.754Z,16.48
2023-01-18T07:22:35.592Z,18.08
2023-01-18T07:23:17.431Z,20.65
2023-01-18T07:23:59.499Z,19.20
2023-01-18T07:24:41.487Z,16.80
2023-01-18T07:25:25.747Z,16.20
2023-01-18T07:26:09.047Z,15.35
2023-01-18T07:26:50.775Z,17.60
2023-01-18T07:27:32.921Z,15.57
2023-01-18T07:28:14.722Z,20.40
2023-01-18T07:28:56.541Z,23.67
2023-01-18T07:29:40.393Z,18.20
2023-01-18T07:30:22.172Z,19.25
2023-01-18T07:31:05.657Z,19.98
2023-01-18T07:31:48.096Z,21.88
2023-01-18T07:32:29.980Z,22.50
2023-01-18T07:33:11.908Z,18.33
2023-01-18T07:33:53.673Z,20.45
2023-01-18T07:34:35.466Z,17.45
2023-01-18T07:35:18.484Z,17.67
2023-01-18T07:36:02.364Z,19.70
2023-01-18T07:36:44.729Z,19.42
2023-01-18T07:37:26.510Z,18.10
2023-01-18T07:38:10.476Z,15.35
2023-01-18T07:38:52.411Z,17.33
2023-01-18T07:39:34.143Z,21.50
2023-01-18T07:40:16.197Z,18.92
2023-01-18T07:41:03.222Z,17.60
2023-01-18T07:41:48.063Z,19.50
2023-01-18T07:42:30.087Z,17.42
2023-01-18T07:43:12.216Z,20.88
2023-01-18T07:43:53.948Z,18.10
2023-01-18T07:44:35.806Z,18.38
2023-01-18T07:45:18.061Z,19.23
2023-01-18T07:46:00.700Z,17.92
2023-01-18T07:46:45.721Z,21.95
2023-01-18T07:47:27.498Z,18.48
2023-01-18T07:48:10.054Z,19.35
2023-01-18T07:48:52.715Z,22.80
2023-01-18T07:49:34.540Z,19.25
2023-01-18T07:50:16.878Z,19.83
2023-01-18T07:51:03.079Z,20.42
2023-01-18T07:51:47.483Z,23.92
2023-01-18T07:52:29.734Z,18.98
2023-01-18T07:53:11.970Z,18.05
2023-01-18T07:53:55.224Z,20.08
2023-01-18T07:54:37.525Z,18.58
2023-01-18T07:55:21.565Z,19.60
2023-01-18T07:56:04.725Z,20.92
2023-01-18T07:56:46.830Z,18.40
2023-01-18T07:57:29.003Z,22.48
2023-01-18T07:58:11.191Z,21.52
2023-01-18T07:58:53.761Z,20.95
2023-01-18T07:59:35.905Z,21.42
2023-01-18T08:00:18.342Z,22.45
2023-01-18T08:01:04.607Z,20.80
2023-01-18T08:01:46.758Z,21.23
2023-01-18T08:02:28.956Z,23.30
2023-01-18T08:03:17.756Z,21.95
2023-01-18T08:03:59.931Z,20.55
2023-01-18T08:04:42.071Z,23.90
2023-01-18T08:05:26.795Z,21.60
2023-01-18T08:06:11.896Z,21.05
2023-01-18T08:06:54.018Z,23.88
2023-01-18T08:07:36.830Z,19.83
2023-01-18T08:08:19.321Z,22.17
2023-01-18T08:09:01.669Z,23.58
2023-01-18T08:09:44.224Z,19.98
2023-01-18T08:10:27.512Z,25.50
2023-01-18T08:11:10.444Z,25.83
2023-01-18T08:11:52.578Z,25.08
2023-01-18T08:12:34.785Z,23.35
2023-01-18T08:13:19.024Z,19.92
2023-01-18T08:14:01.565Z,19.63
2023-01-18T08:14:45.602Z,21.60
2023-01-18T08:15:27.970Z,20.70
2023-01-18T08:16:11.986Z,20.88
2023-01-18T08:16:54.191Z,20.33
2023-01-18T08:17:36.549Z,20.48
2023-01-18T08:18:18.729Z,23.73
2023-01-18T08:19:00.896Z,30.25
2023-01-18T08:19:43.079Z,26.60
2023-01-18T08:20:25.207Z,24.80
2023-01-18T08:21:11.006Z,25.00
2023-01-18T08:21:53.107Z,22.42
2023-01-18T08:22:35.243Z,17.95
2023-01-18T08:23:17.811Z,21.63
2023-01-18T08:23:59.965Z,21.80
2023-01-18T08:24:42.124Z,21.58
2023-01-18T08:25:25.221Z,22.63
2023-01-18T08:26:09.834Z,21.35
2023-01-18T08:26:51.998Z,18.15
2023-01-18T08:27:34.199Z,23.48
2023-01-18T08:28:16.767Z,26.83
2023-01-18T08:28:58.932Z,25.33
2023-01-18T08:29:41.110Z,26.35
2023-01-18T08:30:24.277Z,19.45
2023-01-18T08:31:17.029Z,20.73
2023-01-18T08:32:00.713Z,20.90
2023-01-18T08:32:43.060Z,25.85
2023-01-18T08:33:25.211Z,23.60
2023-01-18T08:34:07.483Z,23.15
2023-01-18T08:34:52.087Z,19.45
2023-01-18T08:35:35.645Z,21.95
2023-01-18T08:36:19.243Z,20.00
2023-01-18T08:37:01.376Z,21.67
2023-01-18T08:37:44.509Z,20.73
2023-01-18T08:38:26.836Z,18.77
2023-01-18T08:39:09.141Z,19.35
2023-01-18T08:39:51.357Z,22.52
2023-01-18T08:40:33.537Z,23.40
2023-01-18T08:41:15.831Z,23.25
2023-01-18T08:41:58.087Z,27.50
2023-01-18T08:42:40.335Z,20.80
2023-01-18T08:43:24.185Z,20.15
2023-01-18T08:44:06.384Z,20.35
2023-01-18T08:44:48.775Z,17.88
2023-01-18T08:45:31.017Z,20.05
2023-01-18T08:46:13.165Z,22.60
2023-01-18T08:46:55.341Z,21.85
2023-01-18T08:47:37.532Z,23.95
2023-01-18T08:48:22.058Z,23.17
2023-01-18T08:49:06.362Z,22.70
2023-01-18T08:49:48.585Z,24.00
2023-01-18T08:50:31.716Z,23.88
2023-01-18T08:51:13.865Z,22.30
2023-01-18T08:51:57.402Z,21.90
2023-01-18T08:52:42.065Z,21.67
2023-01-18T08:53:24.213Z,21.30
2023-01-18T08:54:07.214Z,22.40
2023-01-18T08:54:49.363Z,26.40
2023-01-18T08:55:31.815Z,24.08
2023-01-18T08:56:14.807Z,19.83
2023-01-18T08:56:56.948Z,20.58
2023-01-18T08:57:39.082Z,20.90
2023-01-18T08:58:21.292Z,20.35
2023-01-18T08:59:03.845Z,22.70
2023-01-18T08:59:45.995Z,22.90
2023-01-18T09:00:28.608Z,25.30
2023-01-18T09:01:11.057Z,21.23
2023-01-18T09:01:53.418Z,22.13
2023-01-18T09:02:35.584Z,20.13
2023-01-18T09:03:21.438Z,19.55
2023-01-18T09:04:03.759Z,22.73
2023-01-18T09:04:48.567Z,22.08
2023-01-18T09:05:33.048Z,23.90
2023-01-18T09:06:19.316Z,21.60
2023-01-18T09:07:01.458Z,22.25
2023-01-18T09:07:45.318Z,21.15
2023-01-18T09:08:28.065Z,20.70
2023-01-18T09:09:11.831Z,20.73
2023-01-18T09:09:53.997Z,21.10
2023-01-18T09:10:37.572Z,24.08
2023-01-18T09:11:22.319Z,25.95
2023-01-18T09:12:04.499Z,23.52
2023-01-18T09:12:46.897Z,27.98
2023-01-18T09:13:29.067Z,26.35
2023-01-18T09:14:11.226Z,24.60
2023-01-18T09:14:53.359Z,22.55
2023-01-18T09:15:35.564Z,20.08
2023-01-18T09:16:17.796Z,20.38
2023-01-18T09:17:00.019Z,23.92
2023-01-18T09:17:42.161Z,19.63
2023-01-18T09:18:24.328Z,19.33
2023-01-18T09:19:06.584Z,19.33
2023-01-18T09:19:48.759Z,22.92
2023-01-18T09:20:30.923Z,24.98
2023-01-18T09:21:13.950Z,23.15
2023-01-18T09:21:56.110Z,25.75
2023-01-18T09:22:38.792Z,23.70
2023-01-18T09:23:21.351Z,20.58
2023-01-18T09:24:03.515Z,20.27
2023-01-18T09:24:45.803Z,20.33
2023-01-18T09:25:27.931Z,21.30
2023-01-18T09:26:17.036Z,22.55
2023-01-18T09:26:59.436Z,23.35
2023-01-18T09:27:42.333Z,23.55
2023-01-18T09:28:24.507Z,23.45
2023-01-18T09:29:06.652Z,23.33
2023-01-18T09:29:52.296Z,22.90
2023-01-18T09:30:35.932Z,24.58
2023-01-18T09:31:18.395Z,25.30
2023-01-18T09:32:00.575Z,23.08
2023-01-18T09:32:43.041Z,24.92
2023-01-18T09:33:34.012Z,23.63
2023-01-18T09:34:20.302Z,27.25
2023-01-18T09:35:02.839Z,27.25
2023-01-18T09:35:47.613Z,25.63
2023-01-18T09:36:30.861Z,28.88
2023-01-18T09:37:15.309Z,31.65
2023-01-18T09:37:57.871Z,28.25
2023-01-18T09:38:40.715Z,25.60
2023-01-18T09:39:23.189Z,22.80
2023-01-18T09:40:05.590Z,23.10
2023-01-18T09:40:47.905Z,22.83
2023-01-18T09:41:36.237Z,23.33
2023-01-18T09:42:38.567Z,22.65